sensor_id;sensor_type;location;lat;lon;timestamp;pressure;altitude;pressure_sealevel;temperature;humidity
69630;BME280;56857;52.212;5.496;2023-05-03T00:00:42;103048.31;;;6.19;100.00
69630;BME280;56857;52.212;5.496;2023-05-03T00:03:07;103043.31;;;6.15;100.00
69630;BME280;56857;52.212;5.496;2023-05-03T00:05:33;103039.13;;;6.11;100.00
69630;BME280;56857;52.212;5.496;2023-05-03T00:07:58;103041.03;;;6.09;100.00
69630;BME280;56857;52.212;5.496;2023-05-03T00:10:24;103040.25;;;6.07;100.00
69630;BME280;56857;52.212;5.496;2023-05-03T00:12:49;103040.50;;;6.02;100.00
69630;BME280;56857;52.212;5.496;2023-05-03T00:15:16;103042.38;;;6.00;100.00
69630;BME280;56857;52.212;5.496;2023-05-03T00:17:41;103032.84;;;5.97;100.00
69630;BME280;56857;52.212;5.496;2023-05-03T00:20:07;103043.56;;;5.94;100.00
69630;BME280;56857;52.212;5.496;2023-05-03T00:22:33;103040.28;;;5.89;100.00
69630;BME280;56857;52.212;5.496;2023-05-03T00:24:59;103038.69;;;5.87;100.00
69630;BME280;56857;52.212;5.496;2023-05-03T00:27:24;103037.09;;;5.84;100.00
69630;BME280;56857;52.212;5.496;2023-05-03T00:29:50;103044.31;;;5.80;100.00
69630;BME280;56857;52.212;5.496;2023-05-03T00:32:15;103041.84;;;5.77;100.00
69630;BME280;56857;52.212;5.496;2023-05-03T00:34:41;103046.41;;;5.74;100.00
69630;BME280;56857;52.212;5.496;2023-05-03T00:37:06;103045.81;;;5.69;100.00
69630;BME280;56857;52.212;5.496;2023-05-03T00:39:31;103045.38;;;5.61;100.00
69630;BME280;56857;52.212;5.496;2023-05-03T00:41:58;103043.06;;;5.54;100.00
69630;BME280;56857;52.212;5.496;2023-05-03T00:44:23;103049.19;;;5.55;100.00
69630;BME280;56857;52.212;5.496;2023-05-03T00:46:49;103048.31;;;5.54;100.00
69630;BME280;56857;52.212;5.496;2023-05-03T00:49:15;103043.16;;;5.53;100.00
69630;BME280;56857;52.212;5.496;2023-05-03T00:51:41;103037.97;;;5.51;100.00
69630;BME280;56857;52.212;5.496;2023-05-03T00:54:07;103038.91;;;5.50;100.00
69630;BME280;56857;52.212;5.496;2023-05-03T00:56:32;103042.47;;;5.49;100.00
69630;BME280;56857;52.212;5.496;2023-05-03T00:58:59;103037.13;;;5.51;100.00
69630;BME280;56857;52.212;5.496;2023-05-03T01:01:25;103036.22;;;5.52;100.00
69630;BME280;56857;52.212;5.496;2023-05-03T01:03:51;103039.75;;;5.51;100.00
69630;BME280;56857;52.212;5.496;2023-05-03T01:08:56;103035.75;;;5.44;100.00
69630;BME280;56857;52.212;5.496;2023-05-03T01:11:26;103041.19;;;5.41;100.00
69630;BME280;56857;52.212;5.496;2023-05-03T01:13:56;103037.78;;;5.39;100.00
69630;BME280;56857;52.212;5.496;2023-05-03T01:16:31;103038.88;;;5.34;100.00
69630;BME280;56857;52.212;5.496;2023-05-03T01:19:03;103050.41;;;5.32;100.00
69630;BME280;56857;52.212;5.496;2023-05-03T01:21:32;103044.44;;;5.28;100.00
69630;BME280;56857;52.212;5.496;2023-05-03T01:26:29;103048.41;;;5.20;100.00
69630;BME280;56857;52.212;5.496;2023-05-03T01:28:55;103044.88;;;5.21;100.00
69630;BME280;56857;52.212;5.496;2023-05-03T01:34:17;103045.09;;;5.16;100.00
69630;BME280;56857;52.212;5.496;2023-05-03T01:36:47;103046.97;;;5.14;100.00
69630;BME280;56857;52.212;5.496;2023-05-03T01:39:18;103050.59;;;5.11;100.00
69630;BME280;56857;52.212;5.496;2023-05-03T01:41:45;103041.09;;;5.09;100.00
69630;BME280;56857;52.212;5.496;2023-05-03T01:44:14;103041.09;;;5.09;100.00
69630;BME280;56857;52.212;5.496;2023-05-03T01:46:42;103040.25;;;5.08;100.00
69630;BME280;56857;52.212;5.496;2023-05-03T01:49:07;103040.41;;;5.05;100.00
69630;BME280;56857;52.212;5.496;2023-05-03T01:51:32;103031.84;;;5.02;100.00
69630;BME280;56857;52.212;5.496;2023-05-03T01:53:58;103039.88;;;4.99;100.00
69630;BME280;56857;52.212;5.496;2023-05-03T01:56:23;103044.44;;;4.95;100.00
69630;BME280;56857;52.212;5.496;2023-05-03T01:58:48;103037.72;;;4.90;100.00
69630;BME280;56857;52.212;5.496;2023-05-03T02:01:14;103044.91;;;4.86;100.00
69630;BME280;56857;52.212;5.496;2023-05-03T02:03:39;103030.16;;;4.83;100.00
69630;BME280;56857;52.212;5.496;2023-05-03T02:06:04;103031.31;;;4.78;100.00
69630;BME280;56857;52.212;5.496;2023-05-03T02:08:30;103027.03;;;4.75;100.00
69630;BME280;56857;52.212;5.496;2023-05-03T02:10:55;103029.75;;;4.74;100.00
69630;BME280;56857;52.212;5.496;2023-05-03T02:13:21;103035.94;;;4.73;100.00
69630;BME280;56857;52.212;5.496;2023-05-03T02:15:46;103024.56;;;4.72;100.00
69630;BME280;56857;52.212;5.496;2023-05-03T02:18:11;103025.56;;;4.70;100.00
69630;BME280;56857;52.212;5.496;2023-05-03T02:20:36;103021.34;;;4.67;100.00
69630;BME280;56857;52.212;5.496;2023-05-03T02:23:04;103016.25;;;4.64;100.00
69630;BME280;56857;52.212;5.496;2023-05-03T02:25:30;103024.19;;;4.62;100.00
69630;BME280;56857;52.212;5.496;2023-05-03T02:27:56;103011.16;;;4.61;100.00
69630;BME280;56857;52.212;5.496;2023-05-03T02:30:21;103006.03;;;4.58;100.00
69630;BME280;56857;52.212;5.496;2023-05-03T02:32:46;103010.59;;;4.54;100.00
69630;BME280;56857;52.212;5.496;2023-05-03T02:35:13;103006.34;;;4.52;100.00
69630;BME280;56857;52.212;5.496;2023-05-03T02:37:38;103006.41;;;4.50;100.00
69630;BME280;56857;52.212;5.496;2023-05-03T02:40:04;103005.97;;;4.42;100.00
69630;BME280;56857;52.212;5.496;2023-05-03T02:42:29;103008.03;;;4.35;100.00
69630;BME280;56857;52.212;5.496;2023-05-03T02:44:54;102999.44;;;4.32;100.00
69630;BME280;56857;52.212;5.496;2023-05-03T02:47:20;102990.97;;;4.27;100.00
69630;BME280;56857;52.212;5.496;2023-05-03T02:49:45;102990.56;;;4.17;100.00
69630;BME280;56857;52.212;5.496;2023-05-03T02:52:10;102994.25;;;4.13;100.00
69630;BME280;56857;52.212;5.496;2023-05-03T02:54:36;102982.06;;;4.12;100.00
69630;BME280;56857;52.212;5.496;2023-05-03T02:57:01;102983.53;;;4.17;100.00
69630;BME280;56857;52.212;5.496;2023-05-03T02:59:27;102977.28;;;4.20;100.00
69630;BME280;56857;52.212;5.496;2023-05-03T03:01:52;102974.72;;;4.18;100.00
69630;BME280;56857;52.212;5.496;2023-05-03T03:04:17;102982.69;;;4.17;100.00
69630;BME280;56857;52.212;5.496;2023-05-03T03:06:43;102987.94;;;4.17;100.00
69630;BME280;56857;52.212;5.496;2023-05-03T03:09:08;102986.22;;;4.16;100.00
69630;BME280;56857;52.212;5.496;2023-05-03T03:11:33;102988.84;;;4.16;100.00
69630;BME280;56857;52.212;5.496;2023-05-03T03:13:58;102992.34;;;4.16;100.00
69630;BME280;56857;52.212;5.496;2023-05-03T03:16:24;103001.22;;;4.14;100.00
69630;BME280;56857;52.212;5.496;2023-05-03T03:18:49;103004.03;;;4.09;100.00
69630;BME280;56857;52.212;5.496;2023-05-03T03:21:14;103005.06;;;4.07;100.00
69630;BME280;56857;52.212;5.496;2023-05-03T03:23:40;103011.22;;;4.06;100.00
69630;BME280;56857;52.212;5.496;2023-05-03T03:26:05;103009.53;;;4.05;100.00
69630;BME280;56857;52.212;5.496;2023-05-03T03:28:30;103002.50;;;4.05;100.00
69630;BME280;56857;52.212;5.496;2023-05-03T03:30:56;103000.66;;;4.07;100.00
69630;BME280;56857;52.212;5.496;2023-05-03T03:33:21;103005.91;;;4.07;100.00
69630;BME280;56857;52.212;5.496;2023-05-03T03:35:47;103013.84;;;4.06;100.00
69630;BME280;56857;52.212;5.496;2023-05-03T03:38:12;103007.84;;;4.04;100.00
69630;BME280;56857;52.212;5.496;2023-05-03T03:40:37;103014.84;;;4.03;100.00
69630;BME280;56857;52.212;5.496;2023-05-03T03:43:03;103010.53;;;4.02;100.00
69630;BME280;56857;52.212;5.496;2023-05-03T03:45:28;103008.03;;;3.99;100.00
69630;BME280;56857;52.212;5.496;2023-05-03T03:47:53;103009.03;;;3.97;100.00
69630;BME280;56857;52.212;5.496;2023-05-03T03:50:19;103015.25;;;3.94;100.00
69630;BME280;56857;52.212;5.496;2023-05-03T03:52:44;103022.44;;;3.90;100.00
69630;BME280;56857;52.212;5.496;2023-05-03T03:55:09;103019.91;;;3.89;100.00
69630;BME280;56857;52.212;5.496;2023-05-03T03:57:35;103016.44;;;3.88;100.00
69630;BME280;56857;52.212;5.496;2023-05-03T04:00:00;103023.59;;;3.85;100.00
69630;BME280;56857;52.212;5.496;2023-05-03T04:02:26;103021.03;;;3.83;100.00
69630;BME280;56857;52.212;5.496;2023-05-03T04:04:51;103030.69;;;3.83;100.00
69630;BME280;56857;52.212;5.496;2023-05-03T04:07:17;103031.38;;;3.86;100.00
69630;BME280;56857;52.212;5.496;2023-05-03T04:09:42;103021.75;;;3.87;100.00
69630;BME280;56857;52.212;5.496;2023-05-03T04:12:07;103020.03;;;3.86;100.00
69630;BME280;56857;52.212;5.496;2023-05-03T04:14:33;103021.81;;;3.85;100.00
69630;BME280;56857;52.212;5.496;2023-05-03T04:16:58;103027.97;;;3.84;100.00
69630;BME280;56857;52.212;5.496;2023-05-03T04:19:24;103031.53;;;3.83;100.00
69630;BME280;56857;52.212;5.496;2023-05-03T04:21:49;103032.38;;;3.84;100.00
69630;BME280;56857;52.212;5.496;2023-05-03T04:24:15;103033.31;;;3.83;100.00
69630;BME280;56857;52.212;5.496;2023-05-03T04:26:40;103039.41;;;3.83;100.00
69630;BME280;56857;52.212;5.496;2023-05-03T04:29:05;103052.50;;;3.83;100.00
69630;BME280;56857;52.212;5.496;2023-05-03T04:31:31;103051.59;;;3.84;100.00
69630;BME280;56857;52.212;5.496;2023-05-03T04:33:56;103048.97;;;3.84;100.00
69630;BME280;56857;52.212;5.496;2023-05-03T04:36:22;103057.72;;;3.85;100.00
69630;BME280;56857;52.212;5.496;2023-05-03T04:38:47;103064.69;;;3.84;100.00
69630;BME280;56857;52.212;5.496;2023-05-03T04:41:13;103062.97;;;3.85;100.00
69630;BME280;56857;52.212;5.496;2023-05-03T04:43:38;103071.59;;;3.87;100.00
69630;BME280;56857;52.212;5.496;2023-05-03T04:46:03;103073.31;;;3.88;100.00
69630;BME280;56857;52.212;5.496;2023-05-03T04:48:29;103067.91;;;3.91;100.00
69630;BME280;56857;52.212;5.496;2023-05-03T04:50:54;103069.75;;;3.89;100.00
69630;BME280;56857;52.212;5.496;2023-05-03T04:53:20;103068.91;;;3.88;100.00
69630;BME280;56857;52.212;5.496;2023-05-03T04:55:45;103069.63;;;3.92;100.00
69630;BME280;56857;52.212;5.496;2023-05-03T04:58:10;103079.13;;;3.94;100.00
69630;BME280;56857;52.212;5.496;2023-05-03T05:00:36;103085.97;;;3.97;100.00
69630;BME280;56857;52.212;5.496;2023-05-03T05:03:01;103082.44;;;3.98;100.00
69630;BME280;56857;52.212;5.496;2023-05-03T05:05:27;103085.78;;;4.02;100.00
69630;BME280;56857;52.212;5.496;2023-05-03T05:07:52;103084.00;;;4.02;100.00
69630;BME280;56857;52.212;5.496;2023-05-03T05:10:17;103079.53;;;4.04;100.00
69630;BME280;56857;52.212;5.496;2023-05-03T05:12:43;103075.94;;;4.07;100.00
69630;BME280;56857;52.212;5.496;2023-05-03T05:15:08;103079.41;;;4.07;100.00
69630;BME280;56857;52.212;5.496;2023-05-03T05:17:34;103078.47;;;4.08;100.00
69630;BME280;56857;52.212;5.496;2023-05-03T05:19:59;103082.63;;;4.12;100.00
69630;BME280;56857;52.212;5.496;2023-05-03T05:22:24;103085.22;;;4.14;100.00
69630;BME280;56857;52.212;5.496;2023-05-03T05:24:50;103082.50;;;4.15;100.00
69630;BME280;56857;52.212;5.496;2023-05-03T05:27:15;103089.47;;;4.16;100.00
69630;BME280;56857;52.212;5.496;2023-05-03T05:29:40;103089.22;;;4.21;100.00
69630;BME280;56857;52.212;5.496;2023-05-03T05:32:05;103095.03;;;4.28;100.00
69630;BME280;56857;52.212;5.496;2023-05-03T05:34:31;103094.06;;;4.30;100.00
69630;BME280;56857;52.212;5.496;2023-05-03T05:36:56;103086.72;;;4.37;100.00
69630;BME280;56857;52.212;5.496;2023-05-03T05:39:22;103089.06;;;4.43;100.00
69630;BME280;56857;52.212;5.496;2023-05-03T05:41:48;103093.09;;;4.50;100.00
69630;BME280;56857;52.212;5.496;2023-05-03T05:44:14;103100.75;;;4.55;100.00
69630;BME280;56857;52.212;5.496;2023-05-03T05:46:39;103090.09;;;4.58;100.00
69630;BME280;56857;52.212;5.496;2023-05-03T05:49:05;103092.47;;;4.62;100.00
69630;BME280;56857;52.212;5.496;2023-05-03T05:51:31;103099.13;;;4.70;100.00
69630;BME280;56857;52.212;5.496;2023-05-03T05:53:56;103089.19;;;4.76;100.00
69630;BME280;56857;52.212;5.496;2023-05-03T05:56:21;103091.59;;;4.81;100.00
69630;BME280;56857;52.212;5.496;2023-05-03T05:58:46;103097.47;;;4.86;100.00
69630;BME280;56857;52.212;5.496;2023-05-03T06:01:12;103098.91;;;4.92;100.00
69630;BME280;56857;52.212;5.496;2023-05-03T06:03:37;103098.59;;;4.98;100.00
69630;BME280;56857;52.212;5.496;2023-05-03T06:06:02;103095.75;;;5.02;100.00
69630;BME280;56857;52.212;5.496;2023-05-03T06:08:28;103098.09;;;5.08;100.00
69630;BME280;56857;52.212;5.496;2023-05-03T06:10:53;103097.84;;;5.13;100.00
69630;BME280;56857;52.212;5.496;2023-05-03T06:13:19;103095.84;;;5.18;100.00
69630;BME280;56857;52.212;5.496;2023-05-03T06:15:44;103097.16;;;5.27;100.00
69630;BME280;56857;52.212;5.496;2023-05-03T06:18:09;103103.78;;;5.34;100.00
69630;BME280;56857;52.212;5.496;2023-05-03T06:20:35;103094.63;;;5.41;100.00
69630;BME280;56857;52.212;5.496;2023-05-03T06:23:00;103098.63;;;5.48;100.00
69630;BME280;56857;52.212;5.496;2023-05-03T06:25:25;103101.66;;;5.58;100.00
69630;BME280;56857;52.212;5.496;2023-05-03T06:27:51;103102.09;;;5.66;100.00
69630;BME280;56857;52.212;5.496;2023-05-03T06:30:16;103097.44;;;5.71;100.00
69630;BME280;56857;52.212;5.496;2023-05-03T06:32:41;103096.25;;;5.77;100.00
69630;BME280;56857;52.212;5.496;2023-05-03T06:35:07;103082.66;;;5.85;100.00
69630;BME280;56857;52.212;5.496;2023-05-03T06:37:33;103083.28;;;5.90;100.00
69630;BME280;56857;52.212;5.496;2023-05-03T06:39:58;103086.34;;;5.98;100.00
69630;BME280;56857;52.212;5.496;2023-05-03T06:42:23;103079.75;;;6.07;100.00
69630;BME280;56857;52.212;5.496;2023-05-03T06:44:50;103075.81;;;6.14;100.00
69630;BME280;56857;52.212;5.496;2023-05-03T06:47:15;103078.03;;;6.21;100.00
69630;BME280;56857;52.212;5.496;2023-05-03T06:49:40;103082.88;;;6.29;100.00
69630;BME280;56857;52.212;5.496;2023-05-03T06:52:06;103078.09;;;6.36;100.00
69630;BME280;56857;52.212;5.496;2023-05-03T06:54:31;103083.03;;;6.42;100.00
69630;BME280;56857;52.212;5.496;2023-05-03T06:56:57;103083.53;;;6.48;100.00
69630;BME280;56857;52.212;5.496;2023-05-03T06:59:22;103081.50;;;6.54;100.00
69630;BME280;56857;52.212;5.496;2023-05-03T07:01:47;103078.31;;;6.63;100.00
69630;BME280;56857;52.212;5.496;2023-05-03T07:04:12;103077.97;;;6.69;100.00
69630;BME280;56857;52.212;5.496;2023-05-03T07:06:38;103081.16;;;6.74;100.00
69630;BME280;56857;52.212;5.496;2023-05-03T07:09:03;103072.25;;;6.77;100.00
69630;BME280;56857;52.212;5.496;2023-05-03T07:11:28;103074.69;;;6.80;100.00
69630;BME280;56857;52.212;5.496;2023-05-03T07:13:55;103069.25;;;6.83;100.00
69630;BME280;56857;52.212;5.496;2023-05-03T07:16:20;103066.53;;;6.84;100.00
69630;BME280;56857;52.212;5.496;2023-05-03T07:18:47;103058.34;;;6.89;100.00
69630;BME280;56857;52.212;5.496;2023-05-03T07:21:13;103062.31;;;6.96;100.00
69630;BME280;56857;52.212;5.496;2023-05-03T07:23:39;103056.00;;;6.99;100.00
69630;BME280;56857;52.212;5.496;2023-05-03T07:26:05;103056.66;;;7.02;100.00
69630;BME280;56857;52.212;5.496;2023-05-03T07:28:31;103044.25;;;7.04;100.00
69630;BME280;56857;52.212;5.496;2023-05-03T07:30:57;103046.78;;;7.06;100.00
69630;BME280;56857;52.212;5.496;2023-05-03T07:33:23;103039.44;;;7.11;100.00
69630;BME280;56857;52.212;5.496;2023-05-03T07:35:49;103037.28;;;7.17;100.00
69630;BME280;56857;52.212;5.496;2023-05-03T07:38:15;103040.31;;;7.26;100.00
69630;BME280;56857;52.212;5.496;2023-05-03T07:40:41;103036.34;;;7.33;100.00
69630;BME280;56857;52.212;5.496;2023-05-03T07:43:08;103032.56;;;7.37;100.00
69630;BME280;56857;52.212;5.496;2023-05-03T07:45:33;103034.19;;;7.39;100.00
69630;BME280;56857;52.212;5.496;2023-05-03T07:47:58;103033.03;;;7.43;100.00
69630;BME280;56857;52.212;5.496;2023-05-03T07:50:24;103025.81;;;7.47;100.00
69630;BME280;56857;52.212;5.496;2023-05-03T07:52:49;103015.72;;;7.54;100.00
69630;BME280;56857;52.212;5.496;2023-05-03T07:55:17;103032.09;;;7.59;100.00
69630;BME280;56857;52.212;5.496;2023-05-03T07:57:43;103022.09;;;7.64;100.00
69630;BME280;56857;52.212;5.496;2023-05-03T08:00:08;103033.13;;;7.71;100.00
69630;BME280;56857;52.212;5.496;2023-05-03T08:02:34;103030.94;;;7.77;100.00
69630;BME280;56857;52.212;5.496;2023-05-03T08:04:59;103019.97;;;7.83;100.00
69630;BME280;56857;52.212;5.496;2023-05-03T08:07:25;103019.66;;;7.88;100.00
69630;BME280;56857;52.212;5.496;2023-05-03T08:09:50;103021.09;;;7.94;100.00
69630;BME280;56857;52.212;5.496;2023-05-03T08:12:15;103013.59;;;8.00;100.00
69630;BME280;56857;52.212;5.496;2023-05-03T08:14:40;103017.38;;;8.10;100.00
69630;BME280;56857;52.212;5.496;2023-05-03T08:17:06;103022.06;;;8.20;100.00
69630;BME280;56857;52.212;5.496;2023-05-03T08:19:31;103036.56;;;8.27;100.00
69630;BME280;56857;52.212;5.496;2023-05-03T08:21:56;103015.84;;;8.33;100.00
69630;BME280;56857;52.212;5.496;2023-05-03T08:24:22;103021.59;;;8.40;100.00
69630;BME280;56857;52.212;5.496;2023-05-03T08:26:53;103009.47;;;8.50;100.00
69630;BME280;56857;52.212;5.496;2023-05-03T08:29:19;103004.31;;;8.62;100.00
69630;BME280;56857;52.212;5.496;2023-05-03T08:31:44;103000.84;;;8.74;100.00
69630;BME280;56857;52.212;5.496;2023-05-03T08:34:09;102991.22;;;8.86;100.00
69630;BME280;56857;52.212;5.496;2023-05-03T08:36:35;102978.84;;;8.99;100.00
69630;BME280;56857;52.212;5.496;2023-05-03T08:39:01;102978.44;;;9.05;100.00
69630;BME280;56857;52.212;5.496;2023-05-03T08:41:28;102987.50;;;9.14;100.00
69630;BME280;56857;52.212;5.496;2023-05-03T08:43:54;102991.22;;;9.24;100.00
69630;BME280;56857;52.212;5.496;2023-05-03T08:46:20;102993.72;;;9.38;100.00
69630;BME280;56857;52.212;5.496;2023-05-03T08:48:50;102998.25;;;9.49;100.00
69630;BME280;56857;52.212;5.496;2023-05-03T08:51:16;103009.53;;;9.64;100.00
69630;BME280;56857;52.212;5.496;2023-05-03T08:53:42;103008.13;;;9.84;100.00
69630;BME280;56857;52.212;5.496;2023-05-03T08:56:08;103016.91;;;10.08;100.00
69630;BME280;56857;52.212;5.496;2023-05-03T08:58:37;103018.53;;;10.35;100.00
69630;BME280;56857;52.212;5.496;2023-05-03T09:01:07;103016.25;;;10.41;100.00
69630;BME280;56857;52.212;5.496;2023-05-03T09:03:33;103012.78;;;10.52;100.00
69630;BME280;56857;52.212;5.496;2023-05-03T09:05:59;103010.66;;;10.57;100.00
69630;BME280;56857;52.212;5.496;2023-05-03T09:08:25;103021.44;;;10.78;100.00
69630;BME280;56857;52.212;5.496;2023-05-03T09:10:51;103017.09;;;10.88;100.00
69630;BME280;56857;52.212;5.496;2023-05-03T09:13:16;103029.31;;;11.02;100.00
69630;BME280;56857;52.212;5.496;2023-05-03T09:15:41;103022.06;;;11.16;100.00
69630;BME280;56857;52.212;5.496;2023-05-03T09:18:09;103017.13;;;11.56;100.00
69630;BME280;56857;52.212;5.496;2023-05-03T09:20:35;103024.19;;;12.00;100.00
69630;BME280;56857;52.212;5.496;2023-05-03T09:23:00;103019.59;;;12.76;100.00
69630;BME280;56857;52.212;5.496;2023-05-03T09:25:42;103019.69;;;14.07;96.54
69630;BME280;56857;52.212;5.496;2023-05-03T09:28:08;103027.59;;;15.79;91.40
69630;BME280;56857;52.212;5.496;2023-05-03T09:30:33;103018.81;;;17.10;84.25
69630;BME280;56857;52.212;5.496;2023-05-03T09:32:58;103022.19;;;17.55;67.44
69630;BME280;56857;52.212;5.496;2023-05-03T09:35:24;103029.28;;;17.64;65.55
69630;BME280;56857;52.212;5.496;2023-05-03T09:37:49;103030.81;;;17.32;67.91
69630;BME280;56857;52.212;5.496;2023-05-03T09:40:15;103031.56;;;18.01;67.42
69630;BME280;56857;52.212;5.496;2023-05-03T09:43:04;103025.22;;;18.68;49.12
69630;BME280;56857;52.212;5.496;2023-05-03T09:45:29;103020.63;;;19.09;56.42
69630;BME280;56857;52.212;5.496;2023-05-03T09:47:55;103020.56;;;20.19;49.57
69630;BME280;56857;52.212;5.496;2023-05-03T09:50:21;103021.25;;;20.36;44.58
69630;BME280;56857;52.212;5.496;2023-05-03T09:52:47;103019.34;;;20.97;45.90
69630;BME280;56857;52.212;5.496;2023-05-03T09:55:15;103030.63;;;22.03;44.86
69630;BME280;56857;52.212;5.496;2023-05-03T09:57:42;103019.91;;;23.22;43.10
69630;BME280;56857;52.212;5.496;2023-05-03T10:00:11;103011.97;;;23.62;41.37
69630;BME280;56857;52.212;5.496;2023-05-03T10:02:36;103016.47;;;24.23;40.23
69630;BME280;56857;52.212;5.496;2023-05-03T10:05:03;103011.47;;;24.33;37.17
69630;BME280;56857;52.212;5.496;2023-05-03T10:07:30;103005.81;;;23.88;36.51
69630;BME280;56857;52.212;5.496;2023-05-03T10:09:56;103003.09;;;23.81;36.45
69630;BME280;56857;52.212;5.496;2023-05-03T10:12:24;102996.53;;;23.49;36.77
69630;BME280;56857;52.212;5.496;2023-05-03T10:14:51;102999.03;;;22.75;34.58
69630;BME280;56857;52.212;5.496;2023-05-03T10:17:26;102992.50;;;22.34;34.69
69630;BME280;56857;52.212;5.496;2023-05-03T10:19:56;102990.41;;;22.58;36.94
69630;BME280;56857;52.212;5.496;2023-05-03T10:22:25;102996.72;;;23.00;37.46
69630;BME280;56857;52.212;5.496;2023-05-03T10:27:22;102975.41;;;24.46;36.04
69630;BME280;56857;52.212;5.496;2023-05-03T10:29:50;102982.34;;;25.20;36.49
69630;BME280;56857;52.212;5.496;2023-05-03T10:32:40;102976.38;;;25.75;36.49
69630;BME280;56857;52.212;5.496;2023-05-03T10:37:33;102974.50;;;26.07;33.89
69630;BME280;56857;52.212;5.496;2023-05-03T10:40:09;102967.84;;;26.28;33.73
69630;BME280;56857;52.212;5.496;2023-05-03T10:42:36;102972.66;;;26.26;32.69
69630;BME280;56857;52.212;5.496;2023-05-03T10:45:01;102976.50;;;25.93;32.57
69630;BME280;56857;52.212;5.496;2023-05-03T10:47:28;102973.09;;;25.73;31.79
69630;BME280;56857;52.212;5.496;2023-05-03T10:55:12;102981.81;;;24.71;30.81
69630;BME280;56857;52.212;5.496;2023-05-03T10:57:40;102970.59;;;23.95;32.48
69630;BME280;56857;52.212;5.496;2023-05-03T11:00:12;102969.94;;;23.73;32.97
69630;BME280;56857;52.212;5.496;2023-05-03T11:05:27;102970.53;;;23.07;33.49
69630;BME280;56857;52.212;5.496;2023-05-03T11:08:19;102964.31;;;23.13;34.26
69630;BME280;56857;52.212;5.496;2023-05-03T11:10:46;102953.13;;;23.29;33.31
69630;BME280;56857;52.212;5.496;2023-05-03T11:13:12;102951.81;;;23.12;33.87
69630;BME280;56857;52.212;5.496;2023-05-03T11:15:37;102947.81;;;23.63;35.12
69630;BME280;56857;52.212;5.496;2023-05-03T11:18:08;102943.28;;;23.76;34.14
69630;BME280;56857;52.212;5.496;2023-05-03T11:20:34;102942.59;;;23.61;34.26
69630;BME280;56857;52.212;5.496;2023-05-03T11:23:00;102934.66;;;23.40;33.86
69630;BME280;56857;52.212;5.496;2023-05-03T11:25:25;102926.66;;;23.18;33.69
69630;BME280;56857;52.212;5.496;2023-05-03T11:27:51;102936.66;;;22.76;34.44
69630;BME280;56857;52.212;5.496;2023-05-03T11:30:16;102925.66;;;22.50;34.37
69630;BME280;56857;52.212;5.496;2023-05-03T11:32:42;102925.19;;;22.74;35.53
69630;BME280;56857;52.212;5.496;2023-05-03T11:35:09;102929.13;;;23.13;36.44
69630;BME280;56857;52.212;5.496;2023-05-03T11:37:35;102920.31;;;23.66;35.57
69630;BME280;56857;52.212;5.496;2023-05-03T11:40:00;102932.69;;;23.20;35.25
69630;BME280;56857;52.212;5.496;2023-05-03T11:42:26;102926.63;;;23.05;35.59
69630;BME280;56857;52.212;5.496;2023-05-03T11:44:51;102928.97;;;22.80;35.69
69630;BME280;56857;52.212;5.496;2023-05-03T11:47:17;102920.03;;;23.21;36.11
69630;BME280;56857;52.212;5.496;2023-05-03T11:49:55;102928.47;;;23.04;32.88
69630;BME280;56857;52.212;5.496;2023-05-03T11:52:25;102908.16;;;23.22;36.53
69630;BME280;56857;52.212;5.496;2023-05-03T11:54:51;102912.56;;;22.88;35.08
69630;BME280;56857;52.212;5.496;2023-05-03T11:57:16;102904.50;;;22.95;36.10
69630;BME280;56857;52.212;5.496;2023-05-03T11:59:42;102903.38;;;23.17;36.16
69630;BME280;56857;52.212;5.496;2023-05-03T12:02:10;102902.56;;;22.82;35.30
69630;BME280;56857;52.212;5.496;2023-05-03T12:04:36;102895.56;;;22.94;35.92
69630;BME280;56857;52.212;5.496;2023-05-03T12:07:23;102896.66;;;23.06;36.21
69630;BME280;56857;52.212;5.496;2023-05-03T12:09:49;102890.59;;;22.63;35.80
69630;BME280;56857;52.212;5.496;2023-05-03T12:12:18;102891.16;;;22.17;36.13
69630;BME280;56857;52.212;5.496;2023-05-03T12:14:57;102888.66;;;22.50;37.49
69630;BME280;56857;52.212;5.496;2023-05-03T12:17:33;102878.03;;;22.14;35.15
69630;BME280;56857;52.212;5.496;2023-05-03T12:20:16;102884.66;;;21.25;36.56
69630;BME280;56857;52.212;5.496;2023-05-03T12:22:42;102874.94;;;21.10;38.54
69630;BME280;56857;52.212;5.496;2023-05-03T12:25:07;102876.66;;;21.32;39.46
69630;BME280;56857;52.212;5.496;2023-05-03T12:27:32;102869.69;;;20.87;39.21
69630;BME280;56857;52.212;5.496;2023-05-03T12:29:58;102869.63;;;20.65;40.46
69630;BME280;56857;52.212;5.496;2023-05-03T12:32:23;102868.75;;;20.79;40.64
69630;BME280;56857;52.212;5.496;2023-05-03T12:34:48;102868.13;;;20.63;38.98
69630;BME280;56857;52.212;5.496;2023-05-03T12:37:14;102856.41;;;20.41;40.57
69630;BME280;56857;52.212;5.496;2023-05-03T12:39:39;102857.28;;;20.56;40.67
69630;BME280;56857;52.212;5.496;2023-05-03T12:42:04;102859.47;;;20.67;41.17
69630;BME280;56857;52.212;5.496;2023-05-03T12:47:47;102845.59;;;21.21;40.42
69630;BME280;56857;52.212;5.496;2023-05-03T12:50:14;102846.13;;;21.10;39.50
69630;BME280;56857;52.212;5.496;2023-05-03T12:52:42;102844.81;;;20.70;39.08
69630;BME280;56857;52.212;5.496;2023-05-03T12:55:10;102837.28;;;20.65;41.16
69630;BME280;56857;52.212;5.496;2023-05-03T12:57:36;102832.63;;;20.14;40.00
69630;BME280;56857;52.212;5.496;2023-05-03T13:00:05;102825.31;;;19.85;42.23
69630;BME280;56857;52.212;5.496;2023-05-03T13:02:38;102821.22;;;19.75;43.54
69630;BME280;56857;52.212;5.496;2023-05-03T13:05:04;102816.72;;;19.90;43.46
69630;BME280;56857;52.212;5.496;2023-05-03T13:07:29;102820.69;;;19.56;43.18
69630;BME280;56857;52.212;5.496;2023-05-03T13:09:59;102808.56;;;19.14;44.76